Time;durP1;ratioP1;P1;durP2;ratioP2;P2;SDS_P1;SDS_P2;PMS_P1;PMS_P2;Temp;Humidity;BMP_temperature;BMP_pressure;BME280_temperature;BME280_humidity;BME280_pressure;Samples;Min_cycle;Max_cycle;Signal;HPM_P1;HPM_P2
2023/09/18 00:00:21;;;;;;;9.00;3.90;;;;;;;23.62;74.05;99574.09;5071199;28;20171;-64
2023/09/18 00:02:46;;;;;;;14.60;3.90;;;;;;;23.61;74.26;99572.47;5073445;28;20201;-65
2023/09/18 00:05:15;;;;;;;9.30;4.20;;;;;;;23.62;74.27;99567.50;5077783;28;21269;-65
2023/09/18 00:07:41;;;;;;;5.17;3.87;;;;;;;23.62;74.03;99558.84;5084316;28;20179;-65
2023/09/18 00:10:07;;;;;;;7.23;3.93;;;;;;;23.61;74.28;99562.97;5069255;28;21022;-65
2023/09/18 00:12:32;;;;;;;5.57;3.40;;;;;;;23.61;74.01;99569.56;5082422;28;20420;-64
2023/09/18 00:14:58;;;;;;;12.20;4.40;;;;;;;23.62;74.08;99567.50;5092114;28;20230;-64
2023/09/18 00:17:23;;;;;;;8.00;4.03;;;;;;;23.60;74.05;99561.34;5092020;28;20154;-65
2023/09/18 00:19:49;;;;;;;10.03;3.50;;;;;;;23.60;74.01;99558.47;5082645;28;20225;-65
2023/09/18 00:22:14;;;;;;;7.73;4.17;;;;;;;23.60;74.28;99565.06;5066222;28;20632;-64
2023/09/18 00:24:39;;;;;;;6.20;4.20;;;;;;;23.60;74.29;99565.06;5074174;28;20171;-65
2023/09/18 00:27:05;;;;;;;9.33;4.20;;;;;;;23.60;74.18;99565.06;5074950;28;20542;-65
2023/09/18 00:29:30;;;;;;;8.40;3.60;;;;;;;23.59;74.27;99566.28;5071506;28;20738;-65
2023/09/18 00:31:56;;;;;;;8.57;4.13;;;;;;;23.59;74.22;99563.41;5064746;28;20190;-65
2023/09/18 00:34:21;;;;;;;5.50;3.67;;;;;;;23.60;74.28;99570.81;5088192;28;20201;-64
2023/09/18 00:36:47;;;;;;;8.23;4.40;;;;;;;23.59;74.24;99565.50;5088885;28;20194;-65
2023/09/18 00:39:14;;;;;;;8.00;4.30;;;;;;;23.58;74.18;99576.19;5084873;28;20494;-65
2023/09/18 00:41:40;;;;;;;8.77;5.00;;;;;;;23.59;73.46;99571.25;5068162;28;20274;-65
2023/09/18 00:44:06;;;;;;;8.60;3.90;;;;;;;23.58;73.86;99569.63;5056654;28;20431;-65
2023/09/18 00:46:32;;;;;;;11.50;5.00;;;;;;;23.57;74.19;99576.63;5087821;28;20441;-65
2023/09/18 00:48:57;;;;;;;5.00;3.90;;;;;;;23.57;73.64;99576.63;5090504;28;20261;-64
2023/09/18 00:51:23;;;;;;;9.43;4.47;;;;;;;23.56;74.35;99575.81;5091130;28;20771;-65
2023/09/18 00:53:48;;;;;;;6.73;3.23;;;;;;;23.55;74.15;99567.59;5081472;28;20625;-64
2023/09/18 00:56:14;;;;;;;6.70;3.83;;;;;;;23.56;74.31;99577.88;5075849;28;20564;-65
2023/09/18 00:58:39;;;;;;;6.60;4.17;;;;;;;23.52;74.30;99582.88;5045241;28;20665;-65
2023/09/18 01:01:04;;;;;;;10.07;4.37;;;;;;;23.52;74.33;99575.03;5056511;28;20183;-65
2023/09/18 01:03:30;;;;;;;9.23;3.77;;;;;;;23.52;74.29;99591.50;5061148;28;20191;-64
2023/09/18 01:05:56;;;;;;;9.63;3.93;;;;;;;23.52;74.38;99600.16;5072740;28;20174;-65
2023/09/18 01:08:22;;;;;;;11.53;4.57;;;;;;;23.52;74.31;99603.03;5087210;28;20243;-64
2023/09/18 01:10:49;;;;;;;10.10;4.60;;;;;;;23.54;74.08;99604.22;5073451;28;20448;-65
2023/09/18 01:13:16;;;;;;;10.53;4.87;;;;;;;23.53;74.39;99593.97;5087452;28;20222;-65
2023/09/18 01:15:55;;;;;;;6.83;4.40;;;;;;;23.53;74.55;99587.41;5055602;28;20508;-64
2023/09/18 01:18:20;;;;;;;11.03;4.33;;;;;;;23.52;73.98;99591.50;5053183;28;20433;-65
2023/09/18 01:20:46;;;;;;;7.87;4.33;;;;;;;23.51;74.32;99590.72;5072993;28;20420;-65
2023/09/18 01:23:11;;;;;;;10.93;4.00;;;;;;;23.50;74.24;99611.31;5070848;28;20163;-64
2023/09/18 01:25:37;;;;;;;7.93;4.40;;;;;;;23.47;74.13;99627.38;5054921;28;20182;-64
2023/09/18 01:28:03;;;;;;;9.53;4.47;;;;;;;23.35;74.04;99633.72;5070973;28;20179;-65
2023/09/18 01:30:28;;;;;;;9.30;3.60;;;;;;;23.35;73.90;99633.72;5052884;28;20175;-65
2023/09/18 01:32:55;;;;;;;10.40;4.20;;;;;;;23.36;74.20;99629.59;5036174;28;20176;-64
2023/09/18 01:35:22;;;;;;;9.23;4.40;;;;;;;23.34;73.93;99628.38;5073571;28;20190;-65
2023/09/18 01:37:48;;;;;;;9.73;4.57;;;;;;;23.33;73.00;99644.03;5069897;28;20468;-64
2023/09/18 01:40:13;;;;;;;12.67;4.00;;;;;;;23.25;73.71;99648.25;5055380;28;20432;-64
2023/09/18 01:42:39;;;;;;;8.27;3.60;;;;;;;23.24;73.19;99655.25;5080014;28;20186;-64
2023/09/18 01:45:05;;;;;;;5.93;3.33;;;;;;;23.32;72.76;99668.31;5067850;28;20182;-64
2023/09/18 01:47:30;;;;;;;8.00;3.80;;;;;;;23.23;72.72;99688.19;5082256;28;20193;-64
2023/09/18 01:49:56;;;;;;;7.70;3.90;;;;;;;23.28;72.38;99676.19;5071630;28;20417;-64
2023/09/18 01:52:21;;;;;;;9.33;3.70;;;;;;;23.15;72.29;99675.06;5087776;28;20194;-64
2023/09/18 01:54:47;;;;;;;7.00;4.10;;;;;;;23.08;72.48;99669.38;5066383;28;20704;-64
2023/09/18 01:57:12;;;;;;;9.27;3.60;;;;;;;23.05;71.90;99652.94;5066326;28;20256;-64
2023/09/18 01:59:38;;;;;;;8.60;3.50;;;;;;;23.04;71.98;99649.28;5088834;28;20182;-64
2023/09/18 02:02:06;;;;;;;6.60;3.33;;;;;;;23.05;70.83;99642.25;5081995;28;20281;-64
2023/09/18 02:04:32;;;;;;;13.27;3.90;;;;;;;22.99;71.75;99637.41;5084361;28;20405;-64
2023/09/18 02:06:57;;;;;;;7.87;3.17;;;;;;;22.98;71.40;99668.22;5051640;28;20448;-63
2023/09/18 02:09:23;;;;;;;8.80;3.50;;;;;;;22.85;71.63;99670.03;5068685;28;20178;-63
2023/09/18 02:11:48;;;;;;;7.03;3.47;;;;;;;22.82;72.07;99655.66;5086282;28;20182;-63
2023/09/18 02:14:14;;;;;;;9.67;3.60;;;;;;;23.00;72.20;99657.13;5070285;28;20241;-63
2023/09/18 02:16:41;;;;;;;7.87;3.50;;;;;;;23.11;71.71;99675.09;5060545;28;20236;-63
2023/09/18 02:19:06;;;;;;;17.90;3.90;;;;;;;22.97;73.17;99640.69;5074942;28;20190;-63
2023/09/18 02:21:35;;;;;;;8.77;4.00;;;;;;;22.80;73.21;99603.44;5068745;28;20432;-64
2023/09/18 02:24:00;;;;;;;7.30;3.47;;;;;;;23.01;72.19;99629.13;5069658;28;20187;-63
2023/09/18 02:26:26;;;;;;;11.83;3.73;;;;;;;23.15;72.07;99629.81;5071961;28;20455;-63
2023/09/18 02:28:53;;;;;;;11.70;4.30;;;;;;;23.22;72.00;99626.88;5034051;28;20187;-63
2023/09/18 02:31:18;;;;;;;9.40;3.83;;;;;;;23.24;71.08;99607.09;5064912;28;20232;-64
2023/09/18 02:33:44;;;;;;;9.17;3.57;;;;;;;23.28;71.85;99615.72;5066326;28;22497;-63
2023/09/18 02:36:09;;;;;;;6.90;3.70;;;;;;;23.30;72.33;99605.38;5071429;28;20187;-63
2023/09/18 02:38:35;;;;;;;6.10;3.27;;;;;;;23.27;72.37;99594.72;5076843;28;20193;-63
2023/09/18 02:41:00;;;;;;;8.97;4.10;;;;;;;23.29;72.49;99600.84;5077922;28;20182;-63
2023/09/18 02:43:26;;;;;;;6.33;3.27;;;;;;;23.29;72.51;99600.84;5076945;28;20216;-64
2023/09/18 02:45:51;;;;;;;10.20;3.93;;;;;;;23.11;73.99;99605.16;5068640;28;20240;-64
2023/09/18 02:48:17;;;;;;;11.20;4.17;;;;;;;23.07;74.37;99610.97;5067792;28;20186;-63
2023/09/18 02:50:43;;;;;;;13.70;4.20;;;;;;;22.95;75.10;99613.56;5074617;28;20186;-63
2023/09/18 02:53:18;;;;;;;6.50;4.00;;;;;;;23.07;74.55;99616.72;5074105;28;20744;-63
2023/09/18 02:55:44;;;;;;;14.80;4.07;;;;;;;23.13;74.27;99637.25;5067186;28;20259;-63
2023/09/18 02:58:10;;;;;;;7.10;3.83;;;;;;;23.16;73.93;99682.44;5086026;28;20815;-63
2023/09/18 03:00:40;;;;;;;9.20;3.80;;;;;;;23.16;74.01;99722.78;5069141;28;20179;-63
2023/09/18 03:03:06;;;;;;;12.03;4.80;;;;;;;23.07;74.58;99739.72;5037262;28;20568;-63
2023/09/18 03:05:31;;;;;;;6.13;3.23;;;;;;;22.83;75.81;99753.09;5087153;28;20431;-63
2023/09/18 03:07:57;;;;;;;10.43;4.17;;;;;;;22.94;75.18;99776.03;5077171;28;20259;-63
2023/09/18 03:10:22;;;;;;;9.20;4.23;;;;;;;22.82;76.00;99783.13;5082891;28;20216;-63
2023/09/18 03:12:48;;;;;;;12.63;4.10;;;;;;;22.80;76.57;99794.25;5087127;28;21061;-63
2023/09/18 03:15:13;;;;;;;7.50;4.20;;;;;;;22.79;76.58;99795.50;5079180;28;20633;-63
2023/09/18 03:17:41;;;;;;;12.60;4.37;;;;;;;22.54;78.75;99794.84;5083630;28;20185;-63
2023/09/18 03:20:07;;;;;;;14.57;4.37;;;;;;;22.28;80.00;99792.47;5073780;28;20185;-63
2023/09/18 03:22:33;;;;;;;9.83;3.90;;;;;;;22.06;81.77;99785.19;5085722;28;20974;-63
2023/09/18 03:24:58;;;;;;;13.00;4.23;;;;;;;22.26;80.52;99766.19;5083649;28;20428;-63
2023/09/18 03:27:28;;;;;;;9.70;4.40;;;;;;;22.19;81.02;99783.50;5084695;28;20186;-63
2023/09/18 03:29:54;;;;;;;16.77;4.60;;;;;;;22.32;80.63;99760.84;5074682;28;20183;-63
2023/09/18 03:32:19;;;;;;;11.93;4.13;;;;;;;22.09;82.02;99715.38;5074648;28;20527;-63
2023/09/18 03:34:45;;;;;;;14.10;4.10;;;;;;;22.05;82.49;99728.09;5072910;28;21221;-63
2023/09/18 03:37:10;;;;;;;11.53;3.80;;;;;;;22.30;81.36;99734.53;5071082;28;20210;-63
2023/09/18 03:39:36;;;;;;;15.63;4.10;;;;;;;22.43;80.80;99725.00;5076500;28;20560;-63
2023/09/18 03:42:02;;;;;;;7.93;4.10;;;;;;;22.12;82.13;99714.50;5080323;28;20186;-63
2023/09/18 03:44:27;;;;;;;13.87;4.47;;;;;;;22.36;81.79;99695.47;5086629;28;20195;-63
2023/09/18 03:46:53;;;;;;;11.80;3.97;;;;;;;22.37;81.23;99674.91;5080797;28;20962;-63
2023/09/18 03:49:18;;;;;;;11.00;4.30;;;;;;;22.45;80.76;99665.03;5079087;28;20204;-63
2023/09/18 03:51:44;;;;;;;21.80;4.50;;;;;;;22.30;81.70;99637.59;5076977;28;20183;-63
2023/09/18 03:54:09;;;;;;;11.70;4.30;;;;;;;22.42;81.01;99611.19;5074382;28;20199;-63
2023/09/18 03:56:35;;;;;;;14.43;4.57;;;;;;;22.46;80.91;99591.03;5072224;28;20183;-63
2023/09/18 03:59:01;;;;;;;11.70;4.03;;;;;;;22.46;80.65;99568.84;5078093;28;20181;-63
2023/09/18 04:01:27;;;;;;;10.57;4.13;;;;;;;22.63;79.88;99561.28;5071684;28;20183;-63
2023/09/18 04:03:53;;;;;;;14.10;4.50;;;;;;;22.72;79.56;99541.47;5060404;28;20191;-63
2023/09/18 04:06:20;;;;;;;10.80;4.17;;;;;;;22.82;78.84;99532.69;5071849;28;20874;-63
2023/09/18 04:08:46;;;;;;;19.33;4.70;;;;;;;22.63;80.27;99523.88;5083898;28;20190;-64
2023/09/18 04:11:11;;;;;;;11.17;4.10;;;;;;;22.81;79.03;99527.38;5089692;28;20444;-63
2023/09/18 04:13:37;;;;;;;12.00;4.03;;;;;;;22.74;79.31;99518.81;5088025;28;20265;-63
2023/09/18 04:16:04;;;;;;;17.40;4.47;;;;;;;22.89;78.64;99514.53;5071895;28;20202;-64
2023/09/18 04:18:29;;;;;;;17.23;4.00;;;;;;;22.93;78.26;99506.69;5053774;28;20167;-64
2023/09/18 04:20:55;;;;;;;17.13;4.80;;;;;;;22.87;78.67;99519.91;5073865;28;20951;-63
2023/09/18 04:23:22;;;;;;;12.17;3.70;;;;;;;22.96;78.08;99523.91;5071647;28;20179;-63
2023/09/18 04:25:48;;;;;;;12.77;3.77;;;;;;;22.92;78.20;99534.63;5056206;28;20181;-63
2023/09/18 04:28:17;;;;;;;11.07;3.60;;;;;;;22.97;77.77;99528.41;5089720;28;20478;-64
2023/09/18 04:30:43;;;;;;;12.83;4.20;;;;;;;23.01;77.31;99532.06;5073232;28;20844;-65
2023/09/18 04:33:09;;;;;;;17.07;3.27;;;;;;;23.04;77.30;99528.34;5080805;28;20432;-64
2023/09/18 04:35:34;;;;;;;14.60;4.00;;;;;;;23.07;77.41;99527.47;5052878;28;20212;-64
2023/09/18 04:37:59;;;;;;;16.60;4.30;;;;;;;23.08;77.67;99531.97;5079937;28;20190;-64
2023/09/18 04:40:26;;;;;;;7.33;3.37;;;;;;;23.10;76.87;99541.00;5038301;28;21150;-65
2023/09/18 04:42:52;;;;;;;11.50;3.00;;;;;;;23.04;77.59;99551.38;5081242;28;20692;-64
2023/09/18 04:45:18;;;;;;;11.53;4.33;;;;;;;22.89;78.32;99557.72;5082564;28;20517;-64
2023/09/18 04:47:43;;;;;;;9.73;3.20;;;;;;;22.92;78.14;99560.56;5079744;28;20182;-64
2023/09/18 04:50:09;;;;;;;8.27;3.30;;;;;;;22.90;78.13;99548.66;5071463;28;20179;-65
2023/09/18 04:52:40;;;;;;;10.17;3.00;;;;;;;22.86;78.33;99556.50;5058376;28;20183;-65
2023/09/18 04:55:06;;;;;;;6.60;3.60;;;;;;;22.63;79.80;99544.81;5064576;28;20461;-65
2023/09/18 04:57:31;;;;;;;12.60;3.47;;;;;;;22.64;79.78;99557.16;5073215;28;20443;-64
2023/09/18 04:59:57;;;;;;;10.80;3.70;;;;;;;22.47;80.63;99555.28;5070999;28;20713;-64
2023/09/18 05:02:24;;;;;;;12.07;2.80;;;;;;;22.40;80.81;99546.69;5055176;28;20263;-65
2023/09/18 05:04:50;;;;;;;10.93;3.40;;;;;;;22.43;80.69;99546.66;5081471;28;20273;-65
2023/09/18 05:07:16;;;;;;;14.07;3.03;;;;;;;22.48;80.37;99549.09;5065057;28;20437;-65
2023/09/18 05:09:41;;;;;;;10.80;3.33;;;;;;;22.73;79.25;99546.78;5081463;28;20207;-64
2023/09/18 05:12:13;;;;;;;9.13;2.97;;;;;;;22.60;79.53;99551.47;5070250;28;20174;-64
2023/09/18 05:14:41;;;;;;;10.67;2.97;;;;;;;22.45;80.22;99555.72;5069501;28;20219;-65
2023/09/18 05:17:10;;;;;;;7.67;2.70;;;;;;;22.68;78.97;99553.00;5055097;28;20445;-65
2023/09/18 05:19:36;;;;;;;10.90;2.90;;;;;;;22.78;78.35;99554.16;5070654;28;20433;-65
2023/09/18 05:22:02;;;;;;;11.97;2.40;;;;;;;22.74;78.53;99553.38;5077554;28;20429;-65
2023/09/18 05:24:29;;;;;;;10.77;3.00;;;;;;;22.66;78.31;99564.13;5053011;28;20202;-65
2023/09/18 05:26:54;;;;;;;10.47;3.00;;;;;;;22.53;79.30;99554.38;5067508;28;20471;-64
2023/09/18 05:29:20;;;;;;;8.20;2.60;;;;;;;22.48;79.44;99572.09;5057748;28;20445;-65
2023/09/18 05:31:45;;;;;;;9.37;2.67;;;;;;;22.67;78.66;99576.47;5059075;28;20196;-65
2023/09/18 05:34:11;;;;;;;7.77;2.90;;;;;;;22.66;78.38;99569.88;5080205;28;20203;-64
2023/09/18 05:36:37;;;;;;;9.03;2.80;;;;;;;22.68;78.56;99570.25;5081340;28;20266;-65
2023/09/18 05:39:03;;;;;;;9.70;3.30;;;;;;;22.81;78.05;99567.66;5061060;28;20423;-65
2023/09/18 05:41:28;;;;;;;5.53;2.50;;;;;;;22.84;77.70;99587.81;5063417;28;20714;-64
2023/09/18 05:43:55;;;;;;;10.00;2.70;;;;;;;22.90;77.32;99600.47;5081324;28;20166;-65
2023/09/18 05:46:20;;;;;;;7.83;2.57;;;;;;;22.68;78.38;99599.03;5080919;28;20246;-64
2023/09/18 05:48:46;;;;;;;9.07;2.77;;;;;;;22.71;78.64;99609.72;5088351;28;20896;-64
2023/09/18 05:51:11;;;;;;;7.63;2.17;;;;;;;22.82;77.88;99613.28;5081165;28;20708;-64
2023/09/18 05:53:37;;;;;;;8.50;2.67;;;;;;;22.64;78.84;99623.34;5082611;28;20175;-65
2023/09/18 05:56:04;;;;;;;11.17;3.73;;;;;;;22.73;78.49;99629.44;5069084;28;20553;-64
2023/09/18 05:58:31;;;;;;;7.50;2.00;;;;;;;22.81;77.83;99631.00;5075563;28;20454;-65
2023/09/18 06:01:00;;;;;;;5.23;2.50;;;;;;;22.87;77.47;99635.06;5069851;28;20475;-64
2023/09/18 06:03:26;;;;;;;7.27;2.00;;;;;;;22.84;77.77;99630.16;5055064;28;21254;-64
2023/09/18 06:05:51;;;;;;;10.73;2.17;;;;;;;22.87;77.88;99626.44;5069759;28;20436;-65
2023/09/18 06:08:18;;;;;;;9.23;2.43;;;;;;;22.75;78.18;99622.00;5075507;28;20434;-65
2023/09/18 06:10:44;;;;;;;5.10;1.93;;;;;;;22.81;78.00;99626.06;5084185;28;20209;-65
2023/09/18 06:13:10;;;;;;;5.00;1.90;;;;;;;22.89;77.31;99630.50;5079374;28;20468;-64
2023/09/18 06:15:36;;;;;;;7.27;2.17;;;;;;;22.88;77.80;99642.44;5067966;28;20201;-65
2023/09/18 06:18:03;;;;;;;11.10;1.97;;;;;;;22.82;77.71;99656.47;5064530;28;20420;-64
2023/09/18 06:20:28;;;;;;;10.67;2.50;;;;;;;22.79;78.34;99663.09;5049965;28;20261;-65
2023/09/18 06:22:54;;;;;;;6.07;2.90;;;;;;;22.84;78.00;99681.97;5077446;28;20528;-65
2023/09/18 06:25:19;;;;;;;7.47;2.43;;;;;;;22.68;78.39;99679.63;5069694;28;20186;-65
2023/09/18 06:27:45;;;;;;;6.30;2.40;;;;;;;22.18;81.82;99678.31;5075515;28;20179;-64
2023/09/18 06:30:11;;;;;;;16.47;2.33;;;;;;;22.31;81.65;99687.28;5084814;28;20645;-65
2023/09/18 06:32:37;;;;;;;8.70;3.03;;;;;;;22.71;80.92;99687.41;5060474;28;20590;-65
2023/09/18 06:35:02;;;;;;;7.93;2.93;;;;;;;22.37;81.87;99694.25;5076992;28;20248;-65
2023/09/18 06:37:28;;;;;;;10.23;2.97;;;;;;;22.52;83.27;99693.72;5052614;28;20673;-64
2023/09/18 06:39:53;;;;;;;5.03;2.00;;;;;;;21.91;83.37;99708.88;5078143;28;20175;-65
2023/09/18 06:42:19;;;;;;;7.70;2.03;;;;;;;22.09;82.59;99708.78;5069124;28;20183;-66
2023/09/18 06:44:44;;;;;;;5.70;1.63;;;;;;;22.41;82.33;99715.97;5076530;28;20179;-66
2023/09/18 06:47:10;;;;;;;8.93;1.93;;;;;;;21.98;82.36;99705.97;5078937;28;20186;-65
2023/09/18 06:49:35;;;;;;;7.23;2.07;;;;;;;22.20;81.07;99712.41;5081577;28;20185;-65
2023/09/18 06:52:01;;;;;;;4.67;2.33;;;;;;;22.06;81.12;99710.44;5075986;28;20190;-66
2023/09/18 06:54:26;;;;;;;5.70;1.90;;;;;;;22.26;82.96;99720.19;5078262;28;20195;-63
2023/09/18 06:56:52;;;;;;;10.20;1.83;;;;;;;22.47;80.83;99722.94;5087119;28;20308;-65
2023/09/18 06:59:17;;;;;;;7.00;2.57;;;;;;;22.59;81.09;99730.28;5078024;28;20261;-65
2023/09/18 07:01:43;;;;;;;8.27;2.70;;;;;;;22.46;79.87;99727.06;5086182;28;20186;-66
2023/09/18 07:04:08;;;;;;;3.70;1.50;;;;;;;22.24;80.20;99722.69;5075128;28;20171;-65
2023/09/18 07:06:34;;;;;;;7.53;2.87;;;;;;;22.43;80.05;99735.69;5068907;28;20255;-65
2023/09/18 07:08:59;;;;;;;5.93;1.60;;;;;;;21.95;82.04;99729.81;5079648;28;20185;-65
2023/09/18 07:11:25;;;;;;;5.93;1.77;;;;;;;21.88;82.03;99732.69;5059080;28;20194;-65
2023/09/18 07:13:50;;;;;;;4.13;1.60;;;;;;;22.01;82.03;99731.00;5071500;28;20226;-66
2023/09/18 07:16:16;;;;;;;4.93;1.83;;;;;;;22.15;81.00;99738.72;5083710;28;20553;-65
2023/09/18 07:18:41;;;;;;;4.77;1.63;;;;;;;22.02;82.01;99755.63;5085740;28;20549;-65
2023/09/18 07:21:08;;;;;;;5.40;1.60;;;;;;;21.95;80.53;99752.81;5069074;28;20677;-65
2023/09/18 07:23:36;;;;;;;6.93;1.70;;;;;;;21.77;81.38;99746.31;5071198;28;20437;-65
2023/09/18 07:26:02;;;;;;;8.50;1.63;;;;;;;22.02;80.83;99749.09;5051074;28;20276;-65
2023/09/18 07:28:28;;;;;;;4.83;1.63;;;;;;;21.77;81.14;99743.44;5050539;28;20445;-65
2023/09/18 07:30:53;;;;;;;6.20;1.63;;;;;;;21.85;81.41;99747.09;5050571;28;20187;-65
2023/09/18 07:33:19;;;;;;;9.13;1.83;;;;;;;21.68;82.48;99757.41;5066692;28;20178;-65
2023/09/18 07:35:48;;;;;;;5.57;1.40;;;;;;;21.95;81.51;99760.59;5079947;28;20206;-65
2023/09/18 07:38:14;;;;;;;9.33;1.50;;;;;;;21.84;81.10;99749.16;5064708;28;20435;-65
2023/09/18 07:40:39;;;;;;;5.07;1.63;;;;;;;21.59;82.18;99748.41;5083437;28;20920;-65
2023/09/18 07:43:04;;;;;;;7.23;1.30;;;;;;;21.58;81.55;99755.34;5050395;28;20649;-65
2023/09/18 07:45:30;;;;;;;6.40;1.50;;;;;;;21.56;81.67;99754.13;5055553;28;20228;-65
2023/09/18 07:47:55;;;;;;;5.80;1.23;;;;;;;21.58;81.83;99748.81;5065037;28;20183;-65
2023/09/18 07:50:21;;;;;;;6.60;2.20;;;;;;;21.39;82.38;99744.34;5068471;28;20626;-65
2023/09/18 07:52:46;;;;;;;5.93;1.53;;;;;;;21.89;81.01;99739.28;5069038;28;20182;-65
2023/09/18 07:55:12;;;;;;;6.10;1.70;;;;;;;21.74;82.07;99721.28;5077820;28;20202;-65
2023/09/18 07:57:38;;;;;;;8.03;1.70;;;;;;;22.02;81.45;99735.50;5049966;28;20179;-65
2023/09/18 08:00:07;;;;;;;4.23;1.50;;;;;;;22.07;81.26;99717.03;5068838;28;20193;-65
2023/09/18 08:02:34;;;;;;;7.17;1.70;;;;;;;22.28;79.63;99705.41;5070707;28;20433;-65
2023/09/18 08:05:01;;;;;;;8.73;1.77;;;;;;;22.28;79.81;99711.94;5073949;28;20838;-65
2023/09/18 08:07:28;;;;;;;4.40;1.77;;;;;;;22.21;80.17;99712.00;5079095;28;20516;-64
2023/09/18 08:09:53;;;;;;;7.87;2.23;;;;;;;22.36;79.77;99716.41;5091841;28;20452;-64
2023/09/18 08:12:19;;;;;;;5.90;2.20;;;;;;;22.57;78.48;99716.28;5088755;28;20434;-65
2023/09/18 08:14:44;;;;;;;5.60;1.70;;;;;;;22.49;78.94;99725.41;5078060;28;20222;-65
2023/09/18 08:17:09;;;;;;;9.30;2.53;;;;;;;22.21;79.61;99717.75;5076678;28;20255;-65
2023/09/18 08:19:37;;;;;;;9.00;2.23;;;;;;;22.11;79.93;99707.13;5073676;28;20178;-64
2023/09/18 08:22:03;;;;;;;6.70;2.17;;;;;;;22.19;80.29;99697.25;5079176;28;20210;-64
2023/09/18 08:24:29;;;;;;;5.57;1.70;;;;;;;22.21;80.31;99711.16;5074424;28;20490;-65
2023/09/18 08:26:55;;;;;;;6.27;1.73;;;;;;;22.31;79.24;99710.28;5087273;28;20432;-64
2023/09/18 08:29:21;;;;;;;5.50;1.63;;;;;;;22.25;79.47;99695.53;5071339;28;20179;-65
2023/09/18 08:31:47;;;;;;;6.20;1.63;;;;;;;22.30;79.58;99702.91;5061099;28;20621;-65
2023/09/18 08:34:12;;;;;;;5.50;2.00;;;;;;;22.26;79.56;99705.81;5072809;28;20429;-65
2023/09/18 08:36:38;;;;;;;5.67;1.53;;;;;;;22.06;79.95;99709.63;5053749;28;20194;-65
2023/09/18 08:39:06;;;;;;;5.13;1.73;;;;;;;22.36;79.42;99709.84;5085273;28;20178;-65
2023/09/18 08:41:32;;;;;;;6.70;2.13;;;;;;;22.40;79.00;99713.50;5083544;28;20179;-65
2023/09/18 08:44:03;;;;;;;8.53;1.97;;;;;;;22.52;78.38;99721.69;5055793;28;20542;-65
2023/09/18 08:46:28;;;;;;;4.97;1.83;;;;;;;22.57;78.15;99742.19;5053545;28;20496;-65
2023/09/18 08:48:54;;;;;;;6.13;1.50;;;;;;;22.65;77.66;99745.84;5071213;28;20516;-65
2023/09/18 08:51:19;;;;;;;10.90;2.10;;;;;;;22.49;78.31;99757.88;5083998;28;20191;-65
2023/09/18 08:53:45;;;;;;;6.47;1.50;;;;;;;22.58;78.02;99766.03;5049156;28;20654;-65
2023/09/18 08:56:10;;;;;;;7.63;1.90;;;;;;;22.59;77.82;99765.63;5064887;28;20190;-65
2023/09/18 08:58:39;;;;;;;15.10;2.20;;;;;;;22.65;77.59;99771.75;5090792;28;20181;-64
2023/09/18 09:01:06;;;;;;;5.57;1.57;;;;;;;22.54;77.15;99773.88;5073113;28;20154;-65
2023/09/18 09:03:31;;;;;;;8.17;1.73;;;;;;;22.45;78.18;99780.09;5087569;28;20517;-65
2023/09/18 09:05:57;;;;;;;2.93;1.50;;;;;;;22.43;78.14;99782.53;5069551;28;20422;-63
2023/09/18 09:08:22;;;;;;;4.23;1.27;;;;;;;22.48;78.14;99770.59;5055865;28;20183;-63
2023/09/18 09:10:48;;;;;;;4.80;1.70;;;;;;;22.42;77.94;99772.25;5089772;28;20664;-63
2023/09/18 09:13:14;;;;;;;4.60;1.60;;;;;;;22.47;77.71;99754.59;5071667;28;20661;-63
2023/09/18 09:15:46;;;;;;;4.47;1.53;;;;;;;22.46;77.48;99735.69;5090117;28;20564;-63
2023/09/18 09:18:12;;;;;;;5.87;1.50;;;;;;;22.55;77.56;99738.09;5056057;28;20626;-63
2023/09/18 09:20:38;;;;;;;5.13;1.60;;;;;;;22.52;77.78;99725.38;5068676;28;20479;-63
2023/09/18 09:23:04;;;;;;;4.07;1.63;;;;;;;22.40;78.14;99731.59;5090830;28;20182;-63
2023/09/18 09:25:34;;;;;;;2.47;1.20;;;;;;;22.47;77.54;99733.66;5088917;28;20171;-63
2023/09/18 09:28:06;;;;;;;5.77;1.70;;;;;;;22.54;77.65;99734.44;5071649;28;21011;-63
2023/09/18 09:30:32;;;;;;;4.77;1.60;;;;;;;22.51;77.43;99738.13;5083069;28;20497;-63
2023/09/18 09:32:58;;;;;;;3.83;1.33;;;;;;;22.43;77.62;99736.50;5084724;28;21154;-63
2023/09/18 09:35:28;;;;;;;4.30;1.37;;;;;;;22.47;77.95;99743.09;5090388;28;20455;-63
2023/09/18 09:37:59;;;;;;;4.57;1.50;;;;;;;22.55;77.41;99744.69;5086656;28;20436;-63
2023/09/18 09:40:24;;;;;;;2.77;1.20;;;;;;;22.48;77.18;99750.47;5070205;28;20416;-63
2023/09/18 09:43:00;;;;;;;4.43;1.67;;;;;;;22.55;77.01;99753.31;5072541;28;20936;-63
2023/09/18 09:45:26;;;;;;;8.20;1.53;;;;;;;22.36;77.36;99753.81;5077855;28;20186;-63
2023/09/18 09:47:54;;;;;;;8.20;2.03;;;;;;;22.39;76.90;99753.00;5040506;28;20518;-63
2023/09/18 09:50:19;;;;;;;5.90;1.60;;;;;;;22.49;76.73;99768.56;5071992;28;20437;-63
2023/09/18 09:52:49;;;;;;;4.50;1.50;;;;;;;22.64;76.71;99775.84;5076731;28;21277;-63
2023/09/18 09:55:31;;;;;;;5.73;1.63;;;;;;;22.66;76.11;99764.72;5081132;28;20195;-63
2023/09/18 09:58:15;;;;;;;10.97;1.77;;;;;;;22.36;77.66;99730.81;5048771;28;20420;-63
2023/09/18 10:00:49;;;;;;;8.23;1.60;;;;;;;22.45;77.09;99741.88;5089220;28;20919;-68
2023/09/18 10:03:16;;;;;;;8.73;1.93;;;;;;;22.24;77.75;99745.69;5069396;28;20437;-64
2023/09/18 10:05:43;;;;;;;2.67;1.23;;;;;;;22.23;77.34;99749.78;5090264;28;20417;-64
2023/09/18 10:08:15;;;;;;;3.80;1.30;;;;;;;22.47;76.89;99748.84;5067968;28;20424;-64
2023/09/18 10:10:49;;;;;;;4.23;1.47;;;;;;;22.37;77.53;99743.13;5071904;28;20440;-64
2023/09/18 10:13:21;;;;;;;6.63;1.67;;;;;;;22.39;77.37;99749.28;5071373;28;20963;-64
2023/09/18 10:15:46;;;;;;;5.63;1.57;;;;;;;22.44;77.10;99746.81;5071792;28;20464;-64
2023/09/18 10:18:18;;;;;;;5.73;1.90;;;;;;;22.40;76.80;99754.63;5068234;28;20460;-64
2023/09/18 10:20:43;;;;;;;3.53;1.30;;;;;;;22.34;76.92;99741.91;5071356;28;20186;-65
2023/09/18 10:23:17;;;;;;;5.93;1.30;;;;;;;22.35;76.84;99734.94;5067736;28;20440;-64
2023/09/18 10:25:43;;;;;;;4.40;1.20;;;;;;;22.36;75.93;99739.44;5045268;28;20201;-64
2023/09/18 10:28:08;;;;;;;3.97;1.50;;;;;;;22.04;76.46;99735.94;5034424;28;20865;-65
2023/09/18 10:30:35;;;;;;;4.10;1.60;;;;;;;22.18;76.38;99730.09;5057141;28;20197;-65
2023/09/18 10:33:01;;;;;;;5.60;1.47;;;;;;;22.29;75.20;99716.47;5051885;28;20178;-64
2023/09/18 10:35:26;;;;;;;5.70;1.40;;;;;;;22.43;75.19;99719.25;5077140;28;20517;-64
2023/09/18 10:37:53;;;;;;;5.63;1.63;;;;;;;22.48;74.89;99729.53;5050886;28;20229;-64
2023/09/18 10:40:20;;;;;;;5.07;1.43;;;;;;;22.36;75.31;99724.22;5071492;28;20182;-64
2023/09/18 10:42:45;;;;;;;4.43;1.97;;;;;;;22.40;75.14;99731.59;5036568;28;20498;-64
2023/09/18 10:45:11;;;;;;;5.17;2.30;;;;;;;22.52;74.53;99734.00;5068569;28;20413;-64
2023/09/18 10:47:41;;;;;;;2.73;1.30;;;;;;;22.36;74.23;99748.06;5053263;28;20217;-64
2023/09/18 10:50:10;;;;;;;7.53;1.20;;;;;;;22.41;73.90;99741.88;5051761;28;20182;-64
2023/09/18 10:52:43;;;;;;;3.83;1.53;;;;;;;22.55;73.75;99738.09;5038504;28;20441;-65
2023/09/18 10:55:12;;;;;;;4.37;1.60;;;;;;;22.52;73.96;99754.16;5053665;28;20559;-65
2023/09/18 10:57:55;;;;;;;3.37;1.40;;;;;;;22.58;73.23;99749.56;5051921;28;20413;-64
2023/09/18 11:00:31;;;;;;;5.60;1.37;;;;;;;22.54;73.75;99748.81;5035625;28;20425;-64
2023/09/18 11:03:19;;;;;;;7.40;1.57;;;;;;;22.40;73.47;99745.16;5067309;28;20582;-64
2023/09/18 11:05:45;;;;;;;5.60;1.40;;;;;;;22.53;72.83;99743.47;5071816;28;20499;-65
2023/09/18 11:08:27;;;;;;;4.43;1.20;;;;;;;22.47;72.84;99751.72;5070912;28;20907;-64
2023/09/18 11:11:04;;;;;;;5.47;1.27;;;;;;;22.58;72.65;99754.53;5082455;28;20846;-64
2023/09/18 11:13:30;;;;;;;9.20;1.57;;;;;;;22.62;73.11;99761.88;5068831;28;20972;-64
2023/09/18 11:16:27;;;;;;;3.93;1.40;;;;;;;22.59;72.35;99745.50;5044328;28;20985;-64
2023/09/18 11:18:59;;;;;;;2.47;1.30;;;;;;;22.67;72.24;99749.94;5068912;28;20471;-64
2023/09/18 11:21:25;;;;;;;6.00;1.57;;;;;;;22.65;72.28;99761.06;5071438;28;20452;-64
2023/09/18 11:24:05;;;;;;;4.23;1.40;;;;;;;22.76;71.70;99761.78;5054018;28;20509;-64
2023/09/18 11:26:51;;;;;;;7.70;1.33;;;;;;;22.81;71.19;99774.91;5052886;28;20452;-64
2023/09/18 11:29:22;;;;;;;4.87;1.30;;;;;;;22.84;71.46;99763.38;5068460;28;20838;-64